Time;durP1;ratioP1;P1;durP2;ratioP2;P2;SDS_P1;SDS_P2;PMS_P1;PMS_P2;Temp;Humidity;BMP_temperature;BMP_pressure;BME280_temperature;BME280_humidity;BME280_pressure;Samples;Min_cycle;Max_cycle;Signal;HPM_P1;HPM_P2
2023/05/14 00:01:17;;;;;;;5.03;2.40;;;;;;;13.39;65.36;95042.19;5143731;27;20220;-77
2023/05/14 00:03:43;;;;;;;5.10;2.88;;;;;;;13.45;65.42;95046.31;5135645;27;20237;-78
2023/05/14 00:06:10;;;;;;;3.55;2.35;;;;;;;13.47;64.97;95038.63;5133589;27;20250;-77
2023/05/14 00:08:37;;;;;;;4.57;2.97;;;;;;;13.56;64.12;95046.69;5133056;27;20224;-78
2023/05/14 00:11:04;;;;;;;4.65;2.63;;;;;;;13.53;64.55;95044.63;5133046;27;20537;-77
2023/05/14 00:13:31;;;;;;;6.55;2.50;;;;;;;13.56;64.57;95037.72;5132882;27;20200;-76
2023/05/14 00:15:58;;;;;;;4.35;2.45;;;;;;;13.49;65.09;95036.38;5132863;27;20205;-77
2023/05/14 00:18:26;;;;;;;3.03;1.90;;;;;;;13.51;64.23;95034.09;5132804;27;20265;-77
2023/05/14 00:20:53;;;;;;;3.15;2.20;;;;;;;13.52;64.66;95038.41;5132530;27;20265;-76
2023/05/14 00:23:21;;;;;;;4.28;2.22;;;;;;;13.47;64.85;95035.91;5132836;27;20222;-77
2023/05/14 00:25:47;;;;;;;6.63;2.60;;;;;;;13.49;64.51;95033.63;5132588;27;20201;-77
2023/05/14 00:28:14;;;;;;;7.28;2.33;;;;;;;13.41;65.46;95020.91;5132523;27;20688;-78
2023/05/14 00:30:41;;;;;;;5.68;2.22;;;;;;;13.38;65.81;95018.88;5132396;27;20583;-78
2023/05/14 00:33:08;;;;;;;3.47;2.38;;;;;;;13.31;66.01;95015.88;5132449;27;20237;-78
2023/05/14 00:35:36;;;;;;;4.70;2.33;;;;;;;13.35;65.80;95018.75;5132726;27;20201;-78
2023/05/14 00:38:03;;;;;;;2.92;1.85;;;;;;;13.31;65.55;95018.59;5132098;27;20245;-77
2023/05/14 00:40:31;;;;;;;3.72;2.30;;;;;;;13.30;65.98;95025.19;5132205;27;20649;-77
2023/05/14 00:42:57;;;;;;;4.68;2.28;;;;;;;13.22;66.00;95015.19;5132112;27;20660;-76
2023/05/14 00:45:24;;;;;;;7.07;2.50;;;;;;;13.19;66.21;95020.50;5132293;27;20201;-76
2023/05/14 00:47:51;;;;;;;2.78;1.88;;;;;;;13.23;65.54;95005.91;5132290;27;20205;-77
2023/05/14 00:50:18;;;;;;;8.73;2.47;;;;;;;13.23;65.79;95014.06;5131683;27;20262;-77
2023/05/14 00:52:47;;;;;;;5.55;2.40;;;;;;;13.23;65.39;95011.34;5118957;27;20289;-79
2023/05/14 00:55:16;;;;;;;4.63;1.90;;;;;;;13.24;65.30;95018.38;5132186;27;20200;-77
2023/05/14 00:57:43;;;;;;;3.35;2.58;;;;;;;13.14;64.86;94991.53;5131919;27;20595;-77
2023/05/14 01:00:10;;;;;;;2.28;1.90;;;;;;;13.22;64.79;95009.75;5132206;27;20224;-77
2023/05/14 01:02:37;;;;;;;2.95;2.15;;;;;;;13.20;64.68;94995.66;5131647;27;20554;-77
2023/05/14 01:05:05;;;;;;;8.65;2.30;;;;;;;13.20;64.89;95001.13;5131753;27;20271;-77
2023/05/14 01:07:39;;;;;;;4.88;1.92;;;;;;;13.19;64.40;95004.16;5131867;27;20269;-76
2023/05/14 01:10:12;;;;;;;4.25;1.77;;;;;;;13.21;63.85;95001.91;5131536;27;20739;-77
2023/05/14 01:12:51;;;;;;;3.50;2.35;;;;;;;13.23;63.79;95000.44;5131664;27;20189;-79
2023/05/14 01:15:24;;;;;;;2.72;1.88;;;;;;;13.15;63.95;94998.59;5131669;27;20236;-76
2023/05/14 01:17:55;;;;;;;1.88;1.42;;;;;;;13.18;63.51;94992.50;5131630;27;20299;-76
2023/05/14 01:20:22;;;;;;;3.20;2.17;;;;;;;13.18;63.14;94999.84;5118580;27;20223;-77
2023/05/14 01:22:50;;;;;;;3.00;1.88;;;;;;;13.19;63.22;95006.88;5131506;27;20247;-76
2023/05/14 01:25:17;;;;;;;2.35;1.38;;;;;;;13.15;63.37;95013.00;5131376;27;20574;-75
2023/05/14 01:27:52;;;;;;;5.00;2.05;;;;;;;13.15;63.22;95018.44;5131112;27;20652;-75
2023/05/14 01:30:28;;;;;;;2.00;1.42;;;;;;;13.16;63.00;95016.50;5131937;27;20189;-79
2023/05/14 01:32:59;;;;;;;1.95;1.75;;;;;;;13.14;62.66;95018.72;5148560;27;20239;-77
2023/05/14 01:35:28;;;;;;;4.75;2.00;;;;;;;13.10;62.87;95026.00;5141071;27;20185;-75
2023/05/14 01:37:59;;;;;;;4.35;1.45;;;;;;;13.12;62.52;95027.22;5131312;27;20482;-75
2023/05/14 01:40:26;;;;;;;2.50;1.52;;;;;;;13.13;62.93;95033.44;5131340;27;20219;-78
2023/05/14 01:42:55;;;;;;;4.78;1.58;;;;;;;13.15;62.36;95028.50;5131382;27;20200;-78
2023/05/14 01:45:22;;;;;;;1.63;1.38;;;;;;;13.12;62.37;95023.69;5131355;27;20201;-77
2023/05/14 01:47:49;;;;;;;1.48;1.23;;;;;;;13.12;62.08;95021.78;5131128;27;20200;-78
2023/05/14 01:50:16;;;;;;;7.53;1.50;;;;;;;13.10;62.26;95023.25;5130792;27;20253;-75
2023/05/14 01:52:43;;;;;;;1.85;1.55;;;;;;;13.04;62.66;95013.72;5130905;27;20193;-78
2023/05/14 01:55:11;;;;;;;1.42;1.00;;;;;;;13.01;63.39;95014.38;5130150;27;20201;-76
2023/05/14 01:57:38;;;;;;;3.03;1.63;;;;;;;12.92;64.01;95027.25;5130627;27;20251;-76
2023/05/14 02:00:06;;;;;;;1.50;1.40;;;;;;;12.76;65.67;95030.56;5130606;27;20698;-77
2023/05/14 02:02:33;;;;;;;2.72;1.45;;;;;;;12.59;68.26;95036.09;5130617;27;20299;-76
2023/05/14 02:04:59;;;;;;;2.53;1.45;;;;;;;12.42;67.39;95038.97;5130715;27;20222;-77
2023/05/14 02:07:26;;;;;;;3.15;1.90;;;;;;;12.30;68.79;95028.00;5130884;27;20285;-76
2023/05/14 02:09:53;;;;;;;4.78;2.33;;;;;;;12.20;69.69;95033.78;5130408;27;20533;-76
2023/05/14 02:12:21;;;;;;;2.00;1.70;;;;;;;12.20;69.41;95037.31;5130509;27;20261;-77
2023/05/14 02:14:48;;;;;;;2.22;1.58;;;;;;;12.14;69.31;95030.47;5130170;27;20196;-79
2023/05/14 02:17:16;;;;;;;1.70;1.25;;;;;;;12.23;69.04;95033.13;5130685;27;20700;-76
2023/05/14 02:19:43;;;;;;;2.10;1.60;;;;;;;12.28;68.48;95025.63;5130237;27;20252;-79
2023/05/14 02:22:10;;;;;;;4.63;2.40;;;;;;;12.29;68.50;95038.06;5130481;27;20200;-78
2023/05/14 02:24:36;;;;;;;3.33;2.10;;;;;;;12.25;69.20;95041.75;5130525;27;20197;-78
2023/05/14 02:27:03;;;;;;;2.35;1.85;;;;;;;12.29;68.30;95042.72;5130359;27;20254;-78
2023/05/14 02:29:31;;;;;;;3.30;1.35;;;;;;;12.28;67.84;95054.69;5130352;27;20200;-74
2023/05/14 02:31:58;;;;;;;9.88;1.65;;;;;;;12.25;68.64;95050.72;5130290;27;20201;-75
2023/05/14 02:34:25;;;;;;;2.45;1.35;;;;;;;12.23;68.60;95054.88;5130071;27;20281;-78
2023/05/14 02:36:52;;;;;;;2.42;1.75;;;;;;;12.24;68.58;95051.03;5129872;28;20552;-77
2023/05/14 02:39:18;;;;;;;2.80;1.30;;;;;;;12.27;68.20;95050.38;5129959;28;20225;-77
2023/05/14 02:41:45;;;;;;;1.33;1.00;;;;;;;12.27;68.24;95062.03;5130001;28;20204;-76
2023/05/14 02:44:12;;;;;;;3.50;1.55;;;;;;;12.22;68.14;95064.13;5130105;28;20245;-75
2023/05/14 02:46:40;;;;;;;3.13;2.08;;;;;;;12.19;68.08;95070.22;5130151;28;20204;-76
2023/05/14 02:49:07;;;;;;;4.10;2.30;;;;;;;12.21;68.25;95067.97;5130379;28;20197;-78
2023/05/14 02:51:33;;;;;;;2.20;1.45;;;;;;;12.17;68.44;95061.59;5119297;28;20279;-78
2023/05/14 02:54:00;;;;;;;4.20;1.95;;;;;;;12.19;68.85;95070.22;5127383;28;20258;-76
2023/05/14 02:56:27;;;;;;;2.35;1.60;;;;;;;12.17;68.62;95072.47;5129945;28;20725;-78
2023/05/14 02:58:53;;;;;;;3.42;2.03;;;;;;;12.18;69.50;95082.19;5129428;28;20216;-76
2023/05/14 03:01:20;;;;;;;2.72;1.85;;;;;;;12.15;69.36;95069.28;5130154;28;20231;-77
2023/05/14 03:03:49;;;;;;;1.90;1.40;;;;;;;12.14;69.84;95067.69;5129936;28;20261;-77
2023/05/14 03:06:16;;;;;;;6.03;1.98;;;;;;;12.05;70.30;95071.22;5130015;27;20201;-78
2023/05/14 03:08:42;;;;;;;5.60;2.22;;;;;;;12.04;70.09;95069.63;5133834;27;20352;-78
2023/05/14 03:11:09;;;;;;;2.17;1.77;;;;;;;11.99;70.55;95067.13;5134076;27;20209;-77
2023/05/14 03:13:36;;;;;;;2.72;1.77;;;;;;;11.95;70.58;95044.44;5134596;27;20259;-78
2023/05/14 03:16:02;;;;;;;2.25;1.52;;;;;;;11.95;71.01;95046.38;5133863;27;20209;-77
2023/05/14 03:18:29;;;;;;;2.38;1.77;;;;;;;11.92;71.17;95045.09;5133877;27;20208;-77
2023/05/14 03:20:57;;;;;;;5.32;1.25;;;;;;;11.93;71.30;95045.88;5133675;27;20289;-78
2023/05/14 03:23:24;;;;;;;5.07;2.10;;;;;;;11.87;71.87;95058.88;5140429;27;20196;-78
2023/05/14 03:25:51;;;;;;;1.65;1.05;;;;;;;11.77;73.34;95056.47;5141072;27;20197;-77
2023/05/14 03:28:18;;;;;;;2.25;1.67;;;;;;;11.60;73.73;95051.09;5133639;27;20246;-77
2023/05/14 03:30:44;;;;;;;1.58;1.42;;;;;;;11.35;75.77;95048.09;5133401;27;20671;-76
2023/05/14 03:33:11;;;;;;;2.17;1.42;;;;;;;11.18;77.37;95047.34;5133503;27;20228;-77
2023/05/14 03:35:38;;;;;;;1.67;1.58;;;;;;;11.12;78.26;95065.66;5133807;27;20664;-76
2023/05/14 03:38:06;;;;;;;2.65;1.70;;;;;;;11.07;78.15;95071.25;5133617;27;20201;-78
2023/05/14 03:40:33;;;;;;;1.48;1.17;;;;;;;11.07;78.33;95071.25;5133607;27;20309;-78
2023/05/14 03:43:00;;;;;;;2.35;1.33;;;;;;;11.12;78.54;95071.09;5133208;27;20474;-80
2023/05/14 03:45:27;;;;;;;3.45;2.10;;;;;;;11.11;78.80;95064.06;5133497;27;20220;-78
2023/05/14 03:47:54;;;;;;;2.30;1.60;;;;;;;11.14;78.25;95049.88;5133562;27;20197;-78
2023/05/14 03:50:24;;;;;;;4.25;2.38;;;;;;;11.24;78.33;95052.25;5132013;27;20200;-77
2023/05/14 03:52:51;;;;;;;2.22;1.75;;;;;;;11.30;76.98;95061.84;5120658;27;20786;-78
2023/05/14 03:55:20;;;;;;;4.10;2.00;;;;;;;11.35;76.81;95058.94;5133272;27;20253;-78
2023/05/14 03:57:47;;;;;;;3.30;1.75;;;;;;;11.42;76.53;95057.66;5141522;27;20293;-77
2023/05/14 04:00:14;;;;;;;3.55;2.00;;;;;;;11.44;75.93;95066.28;5138321;27;20224;-77
2023/05/14 04:02:41;;;;;;;2.38;1.90;;;;;;;11.43;76.10;95060.06;5141871;27;20269;-78
2023/05/14 04:05:09;;;;;;;19.60;2.30;;;;;;;11.44;75.64;95058.16;5137850;27;20208;-78
2023/05/14 04:07:36;;;;;;;3.10;2.35;;;;;;;11.39;75.97;95065.31;5133346;27;20605;-78
2023/05/14 04:10:03;;;;;;;2.83;2.28;;;;;;;11.42;76.51;95073.94;5133148;27;20200;-78
2023/05/14 04:12:31;;;;;;;2.22;1.02;;;;;;;11.37;76.72;95047.78;5133119;27;20223;-78
2023/05/14 04:14:58;;;;;;;2.40;1.67;;;;;;;11.32;76.25;95059.59;5132916;27;20257;-78
2023/05/14 04:17:25;;;;;;;2.28;1.60;;;;;;;11.40;75.78;95058.78;5132610;27;20545;-78
2023/05/14 04:19:52;;;;;;;4.00;1.83;;;;;;;11.51;75.03;95070.09;5129645;27;20231;-77
2023/05/14 04:22:19;;;;;;;2.60;1.70;;;;;;;11.52;75.22;95068.97;5132547;27;20189;-78
2023/05/14 04:24:45;;;;;;;3.03;1.65;;;;;;;11.51;74.34;95069.28;5132533;27;20189;-76
2023/05/14 04:27:14;;;;;;;5.32;1.58;;;;;;;11.50;74.47;95070.41;5127053;27;20473;-78
2023/05/14 04:29:43;;;;;;;2.55;1.80;;;;;;;11.51;74.10;95072.00;5125066;27;20209;-75
2023/05/14 04:32:11;;;;;;;3.30;2.25;;;;;;;11.52;74.85;95079.03;5126593;27;20197;-77
2023/05/14 04:34:37;;;;;;;3.10;1.90;;;;;;;11.44;74.69;95082.56;5128178;27;20232;-78
2023/05/14 04:37:04;;;;;;;3.88;1.80;;;;;;;11.31;76.63;95095.97;5130515;27;20257;-75
2023/05/14 04:39:31;;;;;;;4.60;2.40;;;;;;;11.17;78.25;95092.63;5143534;27;20198;-76
2023/05/14 04:41:58;;;;;;;3.80;1.85;;;;;;;11.12;79.22;95098.22;5131858;27;20282;-80
2023/05/14 04:44:25;;;;;;;3.97;2.10;;;;;;;11.01;79.59;95096.94;5120673;27;20198;-76
2023/05/14 04:46:53;;;;;;;3.42;1.80;;;;;;;10.96;79.85;95105.22;5126648;27;20205;-76
2023/05/14 04:49:20;;;;;;;5.15;1.98;;;;;;;10.92;81.61;95105.06;5131574;27;20197;-77
2023/05/14 04:51:47;;;;;;;4.20;2.63;;;;;;;10.82;83.38;95104.56;5127123;27;20208;-75
2023/05/14 04:54:14;;;;;;;6.18;2.15;;;;;;;10.82;82.43;95118.91;5131602;27;20200;-75
2023/05/14 04:56:41;;;;;;;3.35;1.65;;;;;;;10.82;82.19;95120.81;5131686;27;20283;-78
2023/05/14 04:59:07;;;;;;;1.75;1.50;;;;;;;10.71;82.41;95120.34;5132541;27;20262;-79
2023/05/14 05:01:34;;;;;;;2.05;1.67;;;;;;;10.64;83.87;95126.22;5131709;27;20282;-79
2023/05/14 05:04:02;;;;;;;4.30;2.42;;;;;;;10.58;84.96;95138.31;5132027;27;20197;-80
2023/05/14 05:06:30;;;;;;;4.80;2.65;;;;;;;10.57;84.43;95136.72;5131464;27;20333;-79
2023/05/14 05:08:57;;;;;;;5.85;2.45;;;;;;;10.45;87.04;95136.53;5131483;27;20192;-85
2023/05/14 05:11:23;;;;;;;3.05;1.63;;;;;;;10.44;87.29;95137.63;5131277;27;20340;-83
2023/05/14 05:13:50;;;;;;;4.47;2.28;;;;;;;10.36;88.03;95146.53;5131533;27;20197;-81
2023/05/14 05:16:17;;;;;;;2.92;1.58;;;;;;;10.27;88.92;95156.50;5132112;27;20193;-82
2023/05/14 05:18:44;;;;;;;4.72;1.60;;;;;;;10.24;89.70;95146.34;5127149;27;20205;-79
2023/05/14 05:21:12;;;;;;;4.70;2.17;;;;;;;10.19;91.41;95157.28;5130376;27;20236;-79
2023/05/14 05:23:39;;;;;;;2.75;2.20;;;;;;;10.14;92.26;95160.09;5130626;27;20197;-79
2023/05/14 05:26:06;;;;;;;7.22;2.28;;;;;;;10.05;92.94;95167.38;5135845;27;20258;-79
2023/05/14 05:28:32;;;;;;;7.32;2.80;;;;;;;9.96;94.90;95154.59;5135969;27;20226;-78
2023/05/14 05:30:59;;;;;;;1.75;1.35;;;;;;;9.90;96.15;95161.25;5133114;27;20201;-85
2023/05/14 05:33:26;;;;;;;7.75;2.90;;;;;;;9.79;98.33;95165.31;5131353;27;20231;-79
2023/05/14 05:35:53;;;;;;;5.70;3.13;;;;;;;9.82;100.00;95172.03;5131596;27;20193;-78
2023/05/14 05:38:21;;;;;;;5.53;3.72;;;;;;;9.75;100.00;95167.03;5129325;27;20201;-82
2023/05/14 05:40:48;;;;;;;9.35;2.78;;;;;;;9.67;100.00;95167.81;5130825;27;20224;-79
2023/05/14 05:43:15;;;;;;;5.60;3.60;;;;;;;9.57;100.00;95173.44;5131241;27;20270;-82
2023/05/14 05:45:42;;;;;;;3.95;2.60;;;;;;;9.49;100.00;95187.69;5125581;27;20724;-85
2023/05/14 05:48:09;;;;;;;5.18;3.42;;;;;;;9.48;100.00;95178.00;5130952;27;20617;-82
2023/05/14 05:50:35;;;;;;;3.47;2.25;;;;;;;9.51;100.00;95190.91;5130843;27;20262;-83
2023/05/14 05:53:02;;;;;;;3.55;2.22;;;;;;;9.47;100.00;95187.19;5128382;27;20257;-85
2023/05/14 05:55:30;;;;;;;3.53;2.53;;;;;;;9.46;100.00;95180.19;5124473;27;20914;-85
2023/05/14 05:57:57;;;;;;;8.05;2.85;;;;;;;9.51;100.00;95190.91;5129848;27;20262;-80
2023/05/14 06:00:24;;;;;;;4.75;2.90;;;;;;;9.43;100.00;95184.31;5129251;27;20592;-82
2023/05/14 06:02:51;;;;;;;3.28;2.53;;;;;;;9.46;100.00;95180.19;5130239;27;20288;-80
2023/05/14 06:05:18;;;;;;;6.15;3.22;;;;;;;9.46;100.00;95182.91;5129453;27;20237;-82
2023/05/14 06:07:45;;;;;;;4.85;2.85;;;;;;;9.51;100.00;95175.47;5129262;27;20201;-81
2023/05/14 06:10:11;;;;;;;10.50;3.97;;;;;;;9.60;100.00;95183.66;5129174;27;20655;-81
2023/05/14 06:12:39;;;;;;;4.55;2.67;;;;;;;9.62;100.00;95173.31;5129951;27;20193;-82
2023/05/14 06:15:07;;;;;;;3.47;2.67;;;;;;;9.62;100.00;95178.72;5129173;27;20284;-83
2023/05/14 06:17:34;;;;;;;6.55;2.78;;;;;;;9.60;100.00;95189.06;5129623;27;20213;-80
2023/05/14 06:20:01;;;;;;;7.15;2.65;;;;;;;9.58;100.00;95173.13;5130228;27;20193;-84
2023/05/14 06:22:27;;;;;;;5.22;2.40;;;;;;;9.56;100.00;95167.25;5131914;27;20267;-82
2023/05/14 06:24:54;;;;;;;7.82;4.38;;;;;;;9.47;100.00;95168.28;5132095;27;20205;-82
2023/05/14 06:27:21;;;;;;;3.85;3.05;;;;;;;9.45;100.00;95170.47;5129805;27;20668;-85
2023/05/14 06:29:49;;;;;;;5.65;2.92;;;;;;;9.41;100.00;95181.13;5130552;27;20230;-86
2023/05/14 06:32:16;;;;;;;3.40;2.35;;;;;;;9.37;100.00;95177.44;5131878;27;20266;-87
2023/05/14 06:34:43;;;;;;;7.18;3.22;;;;;;;9.29;100.00;95182.78;5129706;27;20236;-83
2023/05/14 06:37:10;;;;;;;7.40;2.65;;;;;;;9.19;100.00;95203.50;5131966;27;20201;-78
2023/05/14 06:39:37;;;;;;;5.80;3.13;;;;;;;9.19;100.00;95184.59;5130323;28;20193;-79
2023/05/14 06:42:05;;;;;;;5.10;2.25;;;;;;;9.11;100.00;95182.63;5135056;27;20232;-81
2023/05/14 06:44:32;;;;;;;3.70;2.92;;;;;;;9.10;100.00;95181.03;5135680;27;20196;-87
2023/05/14 06:47:00;;;;;;;7.13;5.90;;;;;;;9.08;100.00;95195.94;5136192;27;20195;-83
2023/05/14 06:49:26;;;;;;;8.13;5.95;;;;;;;9.07;100.00;95183.53;5137314;27;20559;-81
2023/05/14 06:51:53;;;;;;;10.55;6.07;;;;;;;9.12;100.00;95181.53;5136637;27;20243;-85
2023/05/14 06:54:20;;;;;;;8.85;6.07;;;;;;;9.14;100.00;95170.41;5136506;27;20188;-81
2023/05/14 06:56:47;;;;;;;7.40;6.57;;;;;;;9.19;100.00;95167.56;5136540;27;20641;-83
2023/05/14 06:59:13;;;;;;;4.78;3.05;;;;;;;9.22;100.00;95151.56;5136237;27;20652;-77
2023/05/14 07:01:40;;;;;;;5.53;3.33;;;;;;;9.21;100.00;95154.56;5136102;27;20221;-79
2023/05/14 07:04:08;;;;;;;4.40;2.38;;;;;;;9.30;100.00;95162.72;5136814;27;20715;-81
2023/05/14 07:06:35;;;;;;;4.57;3.03;;;;;;;9.33;100.00;95164.81;5136720;27;20632;-79
2023/05/14 07:09:03;;;;;;;6.30;3.08;;;;;;;9.41;100.00;95166.81;5136485;27;20651;-81
2023/05/14 07:11:29;;;;;;;6.45;3.95;;;;;;;9.38;100.00;95162.00;5136529;27;20636;-85
2023/05/14 07:13:56;;;;;;;2.63;2.25;;;;;;;9.44;100.00;95152.66;5136482;27;20201;-81
2023/05/14 07:16:23;;;;;;;5.40;2.67;;;;;;;9.47;100.00;95165.56;5138291;27;20201;-82
2023/05/14 07:18:50;;;;;;;6.15;3.05;;;;;;;9.49;100.00;95183.09;5141951;27;20193;-79
2023/05/14 07:21:18;;;;;;;5.93;3.53;;;;;;;9.44;100.00;95198.63;5135467;27;20285;-83
2023/05/14 07:23:45;;;;;;;7.70;4.65;;;;;;;9.42;100.00;95214.38;5135276;27;20232;-83
2023/05/14 07:26:11;;;;;;;6.43;4.05;;;;;;;9.42;100.00;95192.75;5135368;27;20238;-83
2023/05/14 07:28:38;;;;;;;9.52;4.25;;;;;;;9.38;100.00;95202.56;5136074;27;20238;-80
2023/05/14 07:31:07;;;;;;;6.40;3.17;;;;;;;9.30;100.00;95192.47;5135744;27;20197;-80
2023/05/14 07:33:34;;;;;;;4.75;3.35;;;;;;;9.34;100.00;95188.84;5135487;27;20590;-78
2023/05/14 07:36:01;;;;;;;6.95;3.58;;;;;;;9.29;100.00;95183.59;5136159;27;20197;-79
2023/05/14 07:38:29;;;;;;;6.35;4.35;;;;;;;9.33;100.00;95186.44;5136351;27;20308;-80
2023/05/14 07:40:56;;;;;;;8.40;4.50;;;;;;;9.26;100.00;95185.00;5136413;27;20308;-81
2023/05/14 07:43:23;;;;;;;9.15;5.18;;;;;;;9.38;100.00;95180.94;5136202;27;20188;-78
2023/05/14 07:45:50;;;;;;;4.43;2.58;;;;;;;9.54;100.00;95190.31;5136064;27;20200;-78
2023/05/14 07:48:17;;;;;;;5.72;3.85;;;;;;;9.59;100.00;95198.28;5125300;27;20205;-79
2023/05/14 07:50:44;;;;;;;6.43;4.25;;;;;;;9.53;100.00;95199.50;5134280;27;20636;-80
2023/05/14 07:53:11;;;;;;;5.43;3.92;;;;;;;9.60;100.00;95210.69;5129026;27;20197;-81
2023/05/14 07:55:39;;;;;;;6.75;3.78;;;;;;;9.65;100.00;95217.91;5132195;27;20600;-82
2023/05/14 07:58:05;;;;;;;4.93;3.63;;;;;;;9.70;100.00;95207.75;5132076;27;20224;-80
2023/05/14 08:00:32;;;;;;;4.88;2.45;;;;;;;9.58;100.00;95207.50;5131902;27;20197;-82
2023/05/14 08:02:59;;;;;;;8.95;3.47;;;;;;;9.48;100.00;95211.25;5131473;27;20224;-80
2023/05/14 08:05:26;;;;;;;7.78;4.82;;;;;;;9.56;100.00;95215.13;5131408;27;20258;-80
2023/05/14 08:07:52;;;;;;;4.50;2.88;;;;;;;9.59;100.00;95203.69;5130779;27;20227;-81
2023/05/14 08:10:19;;;;;;;6.50;4.45;;;;;;;9.56;100.00;95207.81;5130163;27;20200;-79
2023/05/14 08:12:47;;;;;;;7.32;4.57;;;;;;;9.61;100.00;95217.69;5130179;27;20205;-80
2023/05/14 08:15:14;;;;;;;5.47;3.83;;;;;;;9.64;100.00;95203.56;5130246;27;20253;-79
2023/05/14 08:17:41;;;;;;;7.18;3.80;;;;;;;9.66;100.00;95201.38;5129879;27;20213;-77
2023/05/14 08:20:10;;;;;;;5.38;3.13;;;;;;;9.69;100.00;95187.22;5130577;27;20193;-79
2023/05/14 08:22:37;;;;;;;7.38;4.28;;;;;;;9.70;100.00;95183.41;5129892;27;20251;-82
2023/05/14 08:25:05;;;;;;;5.80;3.78;;;;;;;9.68;100.00;95174.81;5130538;27;20237;-79
2023/05/14 08:27:32;;;;;;;5.70;3.92;;;;;;;9.81;100.00;95173.94;5131178;27;20193;-79
2023/05/14 08:30:00;;;;;;;4.63;3.92;;;;;;;9.79;100.00;95159.91;5131086;27;20197;-75
2023/05/14 08:32:27;;;;;;;5.40;2.95;;;;;;;9.67;100.00;95186.72;5131862;27;20258;-76
2023/05/14 08:34:53;;;;;;;8.50;3.38;;;;;;;9.72;100.00;95186.59;5131716;27;20644;-79
2023/05/14 08:37:20;;;;;;;5.85;3.45;;;;;;;9.67;100.00;95178.63;5125823;27;20186;-78
2023/05/14 08:39:47;;;;;;;4.40;2.95;;;;;;;9.65;100.00;95170.00;5131262;27;20250;-77
2023/05/14 08:42:20;;;;;;;3.20;2.22;;;;;;;9.74;100.00;95161.94;5130820;27;20220;-80
2023/05/14 08:44:48;;;;;;;5.18;3.58;;;;;;;9.85;100.00;95169.47;5129611;27;20189;-81
2023/05/14 08:47:19;;;;;;;4.03;3.35;;;;;;;9.86;100.00;95160.25;5129917;27;20201;-80
2023/05/14 08:49:49;;;;;;;10.45;5.60;;;;;;;9.92;100.00;95152.81;5130180;27;20959;-80
2023/05/14 08:52:18;;;;;;;5.25;4.03;;;;;;;9.89;100.00;95154.25;5130006;27;20241;-80
2023/05/14 08:54:46;;;;;;;4.55;3.45;;;;;;;9.90;100.00;95163.94;5130396;27;20201;-81
2023/05/14 08:57:15;;;;;;;5.93;3.60;;;;;;;9.86;100.00;95157.56;5131109;27;20682;-86
2023/05/14 08:59:41;;;;;;;3.05;2.35;;;;;;;9.86;100.00;95157.56;5128952;27;20205;-81
2023/05/14 09:02:12;;;;;;;8.45;4.25;;;;;;;9.93;100.00;95149.81;5130054;27;20232;-80
2023/05/14 09:04:42;;;;;;;3.17;2.35;;;;;;;9.99;100.00;95143.13;5128777;27;20665;-80
2023/05/14 09:07:09;;;;;;;5.32;3.15;;;;;;;9.95;100.00;95152.22;5130547;27;20221;-79
2023/05/14 09:09:36;;;;;;;2.88;2.50;;;;;;;10.10;100.00;95143.69;5130746;27;20200;-80
2023/05/14 09:12:03;;;;;;;5.22;3.13;;;;;;;10.23;100.00;95148.25;5130407;27;20877;-83
2023/05/14 09:14:30;;;;;;;5.85;3.35;;;;;;;10.31;100.00;95149.38;5130603;27;20282;-85
2023/05/14 09:16:57;;;;;;;6.05;3.90;;;;;;;10.41;100.00;95138.25;5130628;27;20559;-88
2023/05/14 09:19:24;;;;;;;6.47;4.35;;;;;;;10.43;100.00;95141.44;5131056;27;20192;-85
2023/05/14 09:21:52;;;;;;;7.60;4.18;;;;;;;10.41;100.00;95153.69;5130917;27;20252;-81
2023/05/14 09:24:20;;;;;;;4.50;2.88;;;;;;;10.40;100.00;95165.63;5130381;27;20640;-79
2023/05/14 09:26:50;;;;;;;5.47;3.72;;;;;;;10.27;100.00;95162.72;5130016;27;20219;-79
2023/05/14 09:29:17;;;;;;;7.72;4.28;;;;;;;10.35;100.00;95149.56;5129643;27;20590;-84
2023/05/14 09:31:44;;;;;;;6.30;4.68;;;;;;;10.59;100.00;95134.50;5130749;27;20209;-80
2023/05/14 09:34:11;;;;;;;7.93;3.97;;;;;;;10.35;100.00;95134.09;5129596;27;20626;-81
2023/05/14 09:36:38;;;;;;;5.95;4.40;;;;;;;10.48;100.00;95141.31;5130334;27;20193;-89
2023/05/14 09:39:06;;;;;;;5.50;4.10;;;;;;;10.45;100.00;95149.25;5130066;27;21015;-82
2023/05/14 09:41:33;;;;;;;3.20;2.63;;;;;;;10.42;100.00;95134.44;5130118;27;20303;-82
2023/05/14 09:44:00;;;;;;;5.65;3.67;;;;;;;10.46;100.00;95129.19;5126590;27;20197;-81
2023/05/14 09:46:30;;;;;;;9.93;4.55;;;;;;;10.40;100.00;95120.41;5129059;27;20193;-80
2023/05/14 09:48:57;;;;;;;5.15;3.25;;;;;;;10.41;100.00;95116.59;5129075;27;20300;-83
2023/05/14 09:51:24;;;;;;;9.73;4.32;;;;;;;10.35;100.00;95117.84;5129855;27;20197;-83
2023/05/14 09:53:53;;;;;;;5.07;3.42;;;;;;;10.42;100.00;95115.47;5129599;27;20624;-83
2023/05/14 09:56:21;;;;;;;7.45;4.57;;;;;;;10.30;100.00;95116.06;5129515;27;20304;-84
2023/05/14 09:58:48;;;;;;;3.33;2.35;;;;;;;10.31;100.00;95116.88;5129365;27;20205;-80
2023/05/14 10:01:19;;;;;;;3.85;2.65;;;;;;;10.45;100.00;95116.75;5129428;27;20281;-83
2023/05/14 10:03:46;;;;;;;4.95;2.92;;;;;;;10.32;100.00;95113.06;5129770;27;20193;-82
2023/05/14 10:06:16;;;;;;;6.97;4.30;;;;;;;10.36;100.00;95094.28;5111097;27;20189;-81
2023/05/14 10:08:44;;;;;;;5.07;2.88;;;;;;;10.35;100.00;95095.41;5128287;27;20178;-81
2023/05/14 10:11:16;;;;;;;2.95;2.47;;;;;;;10.22;100.00;95091.69;5129081;27;20204;-83
2023/05/14 10:13:51;;;;;;;5.50;3.70;;;;;;;10.22;100.00;95097.09;5131722;27;20203;-80
2023/05/14 10:16:24;;;;;;;7.03;3.17;;;;;;;10.24;100.00;95089.47;5129697;27;20500;-83
2023/05/14 10:18:56;;;;;;;5.10;3.58;;;;;;;10.16;100.00;95072.03;5129381;27;20192;-79
2023/05/14 10:21:24;;;;;;;4.03;2.78;;;;;;;10.06;100.00;95071.53;5129128;27;20199;-79
2023/05/14 10:23:52;;;;;;;3.58;3.22;;;;;;;10.04;100.00;95069.13;5129234;27;20197;-79
2023/05/14 10:26:19;;;;;;;3.38;2.45;;;;;;;10.08;100.00;95072.03;5129093;27;20208;-79
2023/05/14 10:28:48;;;;;;;6.88;3.38;;;;;;;10.10;100.00;95083.34;5128647;27;20948;-81
2023/05/14 10:31:15;;;;;;;5.75;3.20;;;;;;;10.11;100.00;95098.47;5128325;27;21510;-79
2023/05/14 10:33:49;;;;;;;5.75;4.30;;;;;;;10.27;100.00;95089.63;5126239;27;20236;-82
2023/05/14 10:36:16;;;;;;;7.18;4.90;;;;;;;10.29;100.00;95097.44;5129776;27;20190;-82
2023/05/14 10:38:43;;;;;;;6.40;4.28;;;;;;;10.30;100.00;95091.72;5129810;28;20197;-84
2023/05/14 10:41:12;;;;;;;4.57;3.30;;;;;;;10.32;100.00;95085.97;5129634;28;20200;-80
2023/05/14 10:43:40;;;;;;;4.50;3.33;;;;;;;10.32;100.00;95075.16;5129105;28;20225;-86
2023/05/14 10:46:10;;;;;;;5.10;3.25;;;;;;;10.34;100.00;95083.75;5128949;28;20201;-82
2023/05/14 10:48:41;;;;;;;5.05;3.40;;;;;;;10.31;100.00;95081.69;5128989;28;20957;-85
2023/05/14 10:51:10;;;;;;;6.93;4.03;;;;;;;10.37;100.00;95085.06;5130541;28;20630;-79
2023/05/14 10:53:38;;;;;;;7.90;3.88;;;;;;;10.65;100.00;95084.47;5129647;28;20679;-81
2023/05/14 10:56:07;;;;;;;7.13;3.45;;;;;;;10.63;100.00;95073.16;5129392;28;20368;-85
2023/05/14 10:58:37;;;;;;;6.13;3.80;;;;;;;10.59;100.00;95084.94;5129996;28;20205;-83
2023/05/14 11:01:06;;;;;;;4.25;3.55;;;;;;;10.63;100.00;95065.03;5129982;28;20245;-87
2023/05/14 11:03:40;;;;;;;4.85;3.38;;;;;;;10.56;100.00;95055.75;5128906;28;20232;-83
2023/05/14 11:06:08;;;;;;;5.28;2.78;;;;;;;10.69;100.00;95062.94;5129852;28;20242;-84
2023/05/14 11:08:35;;;;;;;5.57;3.90;;;;;;;10.80;100.00;95063.44;5129959;28;20541;-85
2023/05/14 11:11:02;;;;;;;5.85;2.90;;;;;;;10.71;100.00;95070.75;5129218;28;20226;-82
2023/05/14 11:13:29;;;;;;;3.20;2.80;;;;;;;10.62;100.00;95074.25;5129616;28;20200;-82
2023/05/14 11:15:57;;;;;;;3.92;3.28;;;;;;;10.78;100.00;95065.69;5129062;28;20205;-83
2023/05/14 11:18:28;;;;;;;6.45;3.08;;;;;;;10.78;100.00;95065.69;5129841;28;20197;-81
2023/05/14 11:21:00;;;;;;;5.72;2.85;;;;;;;10.86;100.00;95073.00;5128784;28;20742;-82
2023/05/14 11:23:27;;;;;;;4.78;3.28;;;;;;;10.90;100.00;95076.69;5129120;28;20642;-84
2023/05/14 11:25:55;;;;;;;5.60;3.60;;;;;;;10.95;100.00;95071.09;5129443;28;20305;-89
2023/05/14 11:28:22;;;;;;;3.25;2.50;;;;;;;10.96;100.00;95067.25;5131642;27;20201;-83
2023/05/14 11:30:49;;;;;;;3.03;2.60;;;;;;;11.00;100.00;95068.22;5133459;27;20560;-83
2023/05/14 11:33:17;;;;;;;4.82;3.28;;;;;;;10.93;100.00;95057.09;5128130;27;20625;-78